createdAt,value
2022-12-01T00:00:43.662Z,102694.09
2022-12-01T00:03:10.074Z,102698.31
2022-12-01T00:05:36.751Z,102699.06
2022-12-01T00:08:05.127Z,102698.31
2022-12-01T00:10:33.275Z,102700.84
2022-12-01T00:13:01.923Z,102692.25
2022-12-01T00:15:29.191Z,102694.75
2022-12-01T00:17:56.013Z,102683.81
2022-12-01T00:20:22.389Z,102689.78
2022-12-01T00:22:49.226Z,102692.31
2022-12-01T00:25:18.435Z,102691.31
2022-12-01T00:27:51.434Z,102700.84
2022-12-01T00:30:19.680Z,102690.47
2022-12-01T00:32:46.514Z,102693.09
2022-12-01T00:35:13.775Z,102690.56
2022-12-01T00:37:40.099Z,102680.44
2022-12-01T00:40:07.699Z,102680.19
2022-12-01T00:42:34.319Z,102685.66
2022-12-01T00:45:00.668Z,102685.66
2022-12-01T00:47:27.138Z,102688.25
2022-12-01T00:49:53.540Z,102687.50
2022-12-01T00:52:20.232Z,102691.00
2022-12-01T00:54:46.730Z,102689.47
2022-12-01T00:57:13.628Z,102682.50
2022-12-01T00:59:39.988Z,102681.66
2022-12-01T01:02:07.857Z,102687.63
2022-12-01T01:04:35.855Z,102691.56
2022-12-01T01:07:02.434Z,102688.19
2022-12-01T01:09:28.825Z,102694.94
2022-12-01T01:11:55.205Z,102697.63
2022-12-01T01:14:24.183Z,102685.25
2022-12-01T01:16:50.716Z,102693.22
2022-12-01T01:19:17.724Z,102699.31
2022-12-01T01:21:44.120Z,102700.22
2022-12-01T01:24:10.549Z,102700.38
2022-12-01T01:26:37.975Z,102695.16
2022-12-01T01:29:07.653Z,102701.13
2022-12-01T01:31:34.612Z,102701.31
2022-12-01T01:34:01.244Z,102697.00
2022-12-01T01:36:27.901Z,102701.56
2022-12-01T01:38:55.175Z,102702.31
2022-12-01T01:41:22.638Z,102704.16
2022-12-01T01:43:55.205Z,102707.69
2022-12-01T01:46:24.584Z,102704.22
2022-12-01T01:48:55.140Z,102703.34
2022-12-01T01:51:27.022Z,102717.03
2022-12-01T01:53:56.748Z,102709.50
2022-12-01T01:56:23.770Z,102711.88
2022-12-01T01:58:51.998Z,102707.75
2022-12-01T02:01:18.495Z,102714.66
2022-12-01T02:03:45.990Z,102708.44
2022-12-01T02:06:12.388Z,102710.16
2022-12-01T02:08:38.782Z,102708.50
2022-12-01T02:11:48.519Z,102709.13
2022-12-01T02:14:42.466Z,102707.38
2022-12-01T02:17:41.852Z,102705.59
2022-12-01T02:20:30.123Z,102704.59
2022-12-01T02:23:31.237Z,102705.59
2022-12-01T02:26:16.243Z,102706.75
2022-12-01T02:29:09.057Z,102708.13
2022-12-01T02:31:43.449Z,102709.59
2022-12-01T02:34:43.611Z,102705.44
2022-12-01T02:37:31.077Z,102701.31
2022-12-01T02:40:07.640Z,102701.94
2022-12-01T02:42:53.859Z,102709.75
2022-12-01T02:45:31.520Z,102705.44
2022-12-01T02:48:01.859Z,102698.78
2022-12-01T02:50:31.796Z,102706.34
2022-12-01T02:53:00.339Z,102705.59
2022-12-01T02:55:26.717Z,102705.75
2022-12-01T02:57:53.059Z,102706.59
2022-12-01T03:00:19.682Z,102707.28
2022-12-01T03:03:04.888Z,102712.44
2022-12-01T03:05:48.233Z,102713.41
2022-12-01T03:08:32.557Z,102713.34
2022-12-01T03:11:00.462Z,102708.38
2022-12-01T03:13:38.961Z,102715.06
2022-12-01T03:16:21.226Z,102712.50
2022-12-01T03:18:53.604Z,102717.97
2022-12-01T03:21:22.875Z,102714.59
2022-12-01T03:23:55.210Z,102715.13
2022-12-01T03:26:24.254Z,102714.50
2022-12-01T03:28:54.810Z,102710.97
2022-12-01T03:31:29.022Z,102717.81
2022-12-01T03:34:00.851Z,102706.34
2022-12-01T03:36:32.467Z,102709.66
2022-12-01T03:39:06.829Z,102707.06
2022-12-01T03:41:41.817Z,102701.00
2022-12-01T03:44:20.574Z,102707.91
2022-12-01T03:46:53.844Z,102706.34
2022-12-01T03:49:24.646Z,102706.34
2022-12-01T03:52:12.668Z,102708.06
2022-12-01T03:55:12.000Z,102708.97
2022-12-01T03:57:46.170Z,102708.31
2022-12-01T04:00:15.255Z,102710.03
2022-12-01T04:02:41.709Z,102717.03
2022-12-01T04:05:10.972Z,102717.09
2022-12-01T04:07:38.323Z,102726.84
2022-12-01T04:10:05.907Z,102719.72
2022-12-01T04:12:33.133Z,102727.53
2022-12-01T04:15:05.206Z,102724.16
2022-12-01T04:17:31.532Z,102721.63
2022-12-01T04:19:58.207Z,102719.03
2022-12-01T04:22:25.061Z,102720.78
2022-12-01T04:24:51.871Z,102716.56
2022-12-01T04:27:18.915Z,102717.34
2022-12-01T04:29:45.422Z,102721.56
2022-12-01T04:32:12.468Z,102716.28
2022-12-01T04:34:38.888Z,102720.59
2022-12-01T04:37:06.069Z,102721.41
2022-12-01T04:39:32.401Z,102719.72
2022-12-01T04:41:58.729Z,102711.19
2022-12-01T04:44:28.879Z,102719.03
2022-12-01T04:46:58.007Z,102716.56
2022-12-01T04:49:24.742Z,102708.69
2022-12-01T04:51:51.185Z,102714.09
2022-12-01T04:54:18.152Z,102710.72
2022-12-01T04:56:44.993Z,102718.41
2022-12-01T04:59:11.494Z,102711.59
2022-12-01T05:01:38.468Z,102705.50
2022-12-01T05:04:04.966Z,102710.91
2022-12-01T05:06:31.330Z,102713.50
2022-12-01T05:09:00.324Z,102719.44
2022-12-01T05:11:28.546Z,102715.03
2022-12-01T05:13:55.190Z,102708.22
2022-12-01T05:16:25.090Z,102707.28
2022-12-01T05:19:12.929Z,102710.84
2022-12-01T05:21:40.216Z,102716.19
2022-12-01T05:24:07.802Z,102722.25
2022-12-01T05:26:34.605Z,102716.50
2022-12-01T05:29:00.958Z,102714.78
2022-12-01T05:31:27.506Z,102719.09
2022-12-01T05:33:53.939Z,102713.72
2022-12-01T05:36:20.257Z,102716.50
2022-12-01T05:38:46.832Z,102712.13
2022-12-01T05:41:13.469Z,102721.41
2022-12-01T05:43:39.802Z,102729.22
2022-12-01T05:46:06.298Z,102721.53
2022-12-01T05:48:32.749Z,102732.84
2022-12-01T05:50:59.173Z,102729.53
2022-12-01T05:53:25.563Z,102726.88
2022-12-01T05:55:53.440Z,102721.53
2022-12-01T05:58:20.810Z,102727.63
2022-12-01T06:00:47.184Z,102726.09
2022-12-01T06:03:14.437Z,102733.06
2022-12-01T06:05:40.867Z,102732.28
2022-12-01T06:08:07.768Z,102737.44
2022-12-01T06:10:34.466Z,102740.34
2022-12-01T06:13:00.859Z,102739.41
2022-12-01T06:15:27.305Z,102738.63
2022-12-01T06:17:53.821Z,102739.50
2022-12-01T06:20:20.504Z,102735.25
2022-12-01T06:22:46.827Z,102741.25
2022-12-01T06:25:13.133Z,102744.63
2022-12-01T06:27:39.449Z,102740.34
2022-12-01T06:30:06.760Z,102746.31
2022-12-01T06:32:33.283Z,102745.63
2022-12-01T06:34:59.636Z,102752.53
2022-12-01T06:37:27.606Z,102749.06
2022-12-01T06:39:54.171Z,102753.44
2022-12-01T06:42:20.595Z,102756.91
2022-12-01T06:44:46.933Z,102754.44
2022-12-01T06:47:13.347Z,102755.16
2022-12-01T06:49:39.710Z,102751.69
2022-12-01T06:52:06.075Z,102758.53
2022-12-01T06:54:33.374Z,102756.81
2022-12-01T06:56:59.730Z,102758.72
2022-12-01T06:59:26.160Z,102761.28
2022-12-01T07:01:52.964Z,102763.13
2022-12-01T07:04:19.333Z,102765.66
2022-12-01T07:06:45.737Z,102764.13
2022-12-01T07:09:12.344Z,102766.84
2022-12-01T07:11:38.776Z,102763.47
2022-12-01T07:14:05.199Z,102767.09
2022-12-01T07:16:31.596Z,102770.53
2022-12-01T07:18:59.821Z,102768.84
2022-12-01T07:21:26.127Z,102773.44
2022-12-01T07:23:52.492Z,102769.97
2022-12-01T07:26:18.922Z,102774.19
2022-12-01T07:28:45.439Z,102775.03
2022-12-01T07:31:18.171Z,102779.19
2022-12-01T07:33:45.064Z,102780.41
2022-12-01T07:36:12.824Z,102782.09
2022-12-01T07:38:39.854Z,102785.63
2022-12-01T07:41:12.126Z,102785.53
2022-12-01T07:43:38.938Z,102781.31
2022-12-01T07:46:15.749Z,102772.38
2022-12-01T07:48:45.489Z,102776.03
2022-12-01T07:51:18.004Z,102782.84
2022-12-01T07:53:45.764Z,102785.34
2022-12-01T07:56:12.736Z,102783.56
2022-12-01T07:58:39.490Z,102780.91
2022-12-01T08:01:12.196Z,102779.81
2022-12-01T08:03:39.009Z,102794.53
2022-12-01T08:06:06.644Z,102789.31
2022-12-01T08:08:36.088Z,102797.78
2022-12-01T08:11:14.080Z,102790.13
2022-12-01T08:13:41.805Z,102797.78
2022-12-01T08:16:10.178Z,102798.63
2022-12-01T08:18:38.229Z,102801.94
2022-12-01T08:21:06.474Z,102795.59
2022-12-01T08:23:33.290Z,102794.69
2022-12-01T08:26:09.415Z,102792.75
2022-12-01T08:28:36.844Z,102799.75
2022-12-01T08:31:12.347Z,102801.28
2022-12-01T08:33:38.896Z,102795.28
2022-12-01T08:36:05.781Z,102798.59
2022-12-01T08:38:33.058Z,102801.06
2022-12-01T08:41:01.373Z,102801.91
2022-12-01T08:43:49.967Z,102809.66
2022-12-01T08:46:14.479Z,102815.44
2022-12-01T08:48:41.282Z,102811.13
2022-12-01T08:51:10.997Z,102805.00
2022-12-01T08:53:44.090Z,102812.69
2022-12-01T08:56:13.897Z,102812.75
2022-12-01T08:58:40.412Z,102810.13
2022-12-01T09:01:09.534Z,102803.84
2022-12-01T09:03:37.534Z,102812.75
2022-12-01T09:06:06.981Z,102822.19
2022-12-01T09:08:35.082Z,102817.81
2022-12-01T09:11:04.570Z,102816.66
2022-12-01T09:13:33.055Z,102821.81
2022-12-01T09:16:05.359Z,102815.53
2022-12-01T09:18:32.244Z,102822.44
2022-12-01T09:20:59.117Z,102816.28
2022-12-01T09:23:26.548Z,102817.06
2022-12-01T09:25:53.629Z,102814.50
2022-12-01T09:28:20.617Z,102814.38
2022-12-01T09:30:47.381Z,102808.25
2022-12-01T09:33:13.838Z,102815.91
2022-12-01T09:35:40.232Z,102807.84
2022-12-01T09:38:06.573Z,102818.97
2022-12-01T09:40:38.105Z,102818.78
2022-12-01T09:43:13.631Z,102821.97
2022-12-01T09:45:45.141Z,102820.06
2022-12-01T09:48:23.571Z,102813.75
2022-12-01T09:50:50.000Z,102820.00
2022-12-01T09:53:21.448Z,102820.69
2022-12-01T09:55:49.025Z,102811.06
2022-12-01T09:58:20.373Z,102811.91
2022-12-01T10:00:49.491Z,102818.00
2022-12-01T10:03:32.980Z,102814.97
2022-12-01T10:06:26.885Z,102810.63
2022-12-01T10:09:20.714Z,102808.22
2022-12-01T10:11:48.427Z,102803.00
2022-12-01T10:14:19.979Z,102799.53
2022-12-01T10:17:18.098Z,102798.78
2022-12-01T10:20:11.742Z,102793.69
2022-12-01T10:23:05.756Z,102795.00
2022-12-01T10:25:42.394Z,102797.31
2022-12-01T10:28:39.405Z,102796.28
2022-12-01T10:31:20.228Z,102791.06
2022-12-01T10:33:58.338Z,102789.31
2022-12-01T10:36:26.154Z,102785.00
2022-12-01T10:38:52.728Z,102778.00
2022-12-01T10:41:22.128Z,102775.00
2022-12-01T10:43:52.412Z,102777.28
2022-12-01T10:46:27.644Z,102776.03
2022-12-01T10:48:59.327Z,102772.53
2022-12-01T10:51:27.548Z,102772.69
2022-12-01T10:54:08.078Z,102772.91
2022-12-01T10:56:39.121Z,102768.50
2022-12-01T10:59:24.349Z,102766.56
2022-12-01T11:01:51.030Z,102774.75
2022-12-01T11:04:44.947Z,102774.81
2022-12-01T11:07:22.740Z,102777.59
2022-12-01T11:10:02.646Z,102774.13
2022-12-01T11:12:29.513Z,102777.84
2022-12-01T11:14:57.343Z,102772.38
2022-12-01T11:17:40.304Z,102779.13
2022-12-01T11:20:28.354Z,102772.72
2022-12-01T11:23:09.888Z,102772.56
2022-12-01T11:25:36.647Z,102771.94
2022-12-01T11:28:04.483Z,102763.88
2022-12-01T11:30:32.697Z,102768.94
2022-12-01T11:33:02.520Z,102757.56
2022-12-01T11:35:36.194Z,102759.22
2022-12-01T11:40:55.316Z,102750.69
2022-12-01T11:43:34.347Z,102752.31
2022-12-01T11:46:05.828Z,102745.31
2022-12-01T11:48:36.161Z,102739.41
2022-12-01T11:51:27.229Z,102744.28
2022-12-01T11:54:14.254Z,102745.06
2022-12-01T11:56:42.204Z,102734.50
2022-12-01T11:59:17.830Z,102737.88
2022-12-01T12:02:06.550Z,102735.16
2022-12-01T12:04:42.858Z,102736.81
2022-12-01T12:07:24.656Z,102740.69
2022-12-01T12:10:05.512Z,102733.69
2022-12-01T12:12:47.102Z,102731.22
2022-12-01T12:15:51.103Z,102730.31
2022-12-01T12:18:17.433Z,102728.53
2022-12-01T12:20:59.235Z,102723.81
2022-12-01T12:23:28.586Z,102718.25
2022-12-01T12:26:20.474Z,102719.03
2022-12-01T12:29:24.528Z,102711.34
2022-12-01T12:32:19.599Z,102710.69
2022-12-01T12:35:03.906Z,102709.66
2022-12-01T12:37:53.845Z,102710.31
2022-12-01T12:40:32.748Z,102714.03
2022-12-01T12:43:05.120Z,102711.94
2022-12-01T12:45:50.332Z,102719.41
2022-12-01T12:48:32.735Z,102714.00
2022-12-01T12:51:23.647Z,102705.28
2022-12-01T12:53:57.961Z,102706.31
2022-12-01T12:56:26.810Z,102707.16
2022-12-01T12:59:05.478Z,102697.53
2022-12-01T13:01:41.032Z,102708.84
2022-12-01T13:04:14.192Z,102701.91
2022-12-01T13:06:47.166Z,102706.97
2022-12-01T13:09:20.078Z,102702.91
2022-12-01T13:11:59.015Z,102695.53
2022-12-01T13:14:34.868Z,102698.44
2022-12-01T13:17:24.222Z,102699.03
2022-12-01T13:19:50.857Z,102695.06
2022-12-01T13:22:21.785Z,102696.03
2022-12-01T13:24:48.210Z,102694.69
2022-12-01T13:27:19.283Z,102687.50
2022-12-01T13:29:49.585Z,102693.47
2022-12-01T13:32:31.934Z,102684.28
2022-12-01T13:35:00.289Z,102688.00
2022-12-01T13:37:35.486Z,102689.78
2022-12-01T13:40:24.216Z,102687.31
2022-12-01T13:43:20.915Z,102683.22
2022-12-01T13:45:48.944Z,102684.22
2022-12-01T13:48:49.997Z,102676.88
2022-12-01T13:51:16.528Z,102676.03
2022-12-01T13:54:05.873Z,102676.88
2022-12-01T13:56:39.776Z,102677.81
2022-12-01T13:59:38.008Z,102683.13
2022-12-01T14:02:19.684Z,102677.13
2022-12-01T14:04:46.478Z,102686.34
2022-12-01T14:07:19.221Z,102689.63
2022-12-01T14:09:45.991Z,102686.44
2022-12-01T14:12:19.709Z,102687.28
2022-12-01T14:15:02.111Z,102693.50
2022-12-01T14:17:38.542Z,102688.13
2022-12-01T14:20:12.966Z,102692.53
2022-12-01T14:22:46.016Z,102676.16
2022-12-01T14:25:21.353Z,102689.22
2022-12-01T14:27:55.249Z,102685.84
2022-12-01T14:30:40.039Z,102690.50
2022-12-01T14:33:42.280Z,102685.25
2022-12-01T14:36:24.227Z,102690.50
2022-12-01T14:38:59.418Z,102692.34
2022-12-01T14:41:33.427Z,102695.97
2022-12-01T14:44:05.404Z,102679.53
2022-12-01T14:47:04.348Z,102677.06
2022-12-01T14:49:49.925Z,102686.97
2022-12-01T14:52:42.194Z,102696.47
2022-12-01T14:55:19.173Z,102692.19
2022-12-01T14:58:00.103Z,102701.97
2022-12-01T15:00:26.739Z,102700.59
2022-12-01T15:02:58.837Z,102696.22
2022-12-01T15:05:28.206Z,102697.25
2022-12-01T15:08:18.634Z,102706.09
2022-12-01T15:10:51.677Z,102698.19
2022-12-01T15:13:28.256Z,102703.41
2022-12-01T15:15:56.195Z,102700.94
2022-12-01T15:18:39.565Z,102702.72
2022-12-01T15:21:12.029Z,102700.19
2022-12-01T15:24:01.914Z,102700.34
2022-12-01T15:26:34.258Z,102703.16
2022-12-01T15:29:31.697Z,102702.53
2022-12-01T15:32:02.952Z,102697.56
2022-12-01T15:34:38.500Z,102701.97
2022-12-01T15:37:09.554Z,102706.50
2022-12-01T15:39:42.838Z,102709.13
2022-12-01T15:42:22.717Z,102709.06
2022-12-01T15:45:12.586Z,102710.13
2022-12-01T15:47:43.407Z,102705.00
2022-12-01T15:50:48.993Z,102711.19
2022-12-01T15:53:29.309Z,102711.06
2022-12-01T15:55:59.355Z,102705.31
2022-12-01T15:58:30.132Z,102707.69
2022-12-01T16:01:02.413Z,102705.06
2022-12-01T16:03:29.420Z,102704.56
2022-12-01T16:05:57.069Z,102700.31
2022-12-01T16:08:27.080Z,102705.47
2022-12-01T16:11:11.382Z,102704.56
2022-12-01T16:13:47.878Z,102706.50
2022-12-01T16:16:46.285Z,102708.94
2022-12-01T16:19:12.556Z,102704.63
2022-12-01T16:22:11.950Z,102706.31
2022-12-01T16:24:46.540Z,102704.47
2022-12-01T16:27:23.711Z,102702.03
2022-12-01T16:30:06.368Z,102703.00
2022-12-01T16:32:38.417Z,102697.22
2022-12-01T16:35:24.616Z,102696.03
2022-12-01T16:37:51.034Z,102705.03
2022-12-01T16:40:17.477Z,102701.81
2022-12-01T16:42:43.956Z,102702.06
2022-12-01T16:45:14.667Z,102704.44
2022-12-01T16:47:42.346Z,102702.00
2022-12-01T16:50:14.769Z,102700.03
2022-12-01T16:52:44.541Z,102702.91
2022-12-01T16:55:29.251Z,102699.97
2022-12-01T16:57:55.831Z,102695.91
2022-12-01T17:00:23.402Z,102702.84
2022-12-01T17:02:50.192Z,102704.75
2022-12-01T17:05:16.769Z,102701.38
2022-12-01T17:07:43.204Z,102703.16
2022-12-01T17:10:10.337Z,102701.31
2022-12-01T17:12:36.760Z,102699.25
2022-12-01T17:15:04.181Z,102706.75
2022-12-01T17:17:30.551Z,102702.63
2022-12-01T17:19:56.916Z,102701.63
2022-12-01T17:22:24.321Z,102699.94
2022-12-01T17:24:51.027Z,102697.41
2022-12-01T17:27:18.022Z,102700.88
2022-12-01T17:29:46.426Z,102702.09
2022-12-01T17:32:13.928Z,102704.56
2022-12-01T17:34:40.448Z,102712.41
2022-12-01T17:37:07.110Z,102708.25
2022-12-01T17:39:33.657Z,102708.84
2022-12-01T17:42:00.005Z,102717.63
2022-12-01T17:44:26.645Z,102716.69
2022-12-01T17:46:53.199Z,102711.63
2022-12-01T17:49:19.716Z,102717.91
2022-12-01T17:51:46.144Z,102710.00
2022-12-01T17:54:12.603Z,102714.91
2022-12-01T17:56:39.148Z,102713.25
2022-12-01T17:59:05.572Z,102710.47
2022-12-01T18:01:32.323Z,102712.22
2022-12-01T18:03:59.135Z,102709.69
2022-12-01T18:06:26.819Z,102716.94
2022-12-01T18:08:53.552Z,102711.78
2022-12-01T18:11:20.368Z,102721.41
2022-12-01T18:13:49.183Z,102714.41
2022-12-01T18:16:20.981Z,102721.53
2022-12-01T18:18:48.109Z,102720.84
2022-12-01T18:21:17.154Z,102711.34
2022-12-01T18:23:52.734Z,102714.72
2022-12-01T18:26:21.835Z,102708.13
2022-12-01T18:28:54.983Z,102708.75
2022-12-01T18:31:21.539Z,102718.63
2022-12-01T18:33:48.061Z,102719.72
2022-12-01T18:36:18.317Z,102712.44
2022-12-01T18:38:47.091Z,102713.41
2022-12-01T18:41:13.686Z,102708.94
2022-12-01T18:43:40.124Z,102703.16
2022-12-01T18:46:07.460Z,102704.88
2022-12-01T18:48:35.011Z,102704.81
2022-12-01T18:51:05.955Z,102701.28
2022-12-01T18:53:35.459Z,102702.38
2022-12-01T18:56:06.933Z,102699.59
2022-12-01T18:58:33.842Z,102700.47
2022-12-01T19:01:01.147Z,102702.97
2022-12-01T19:03:33.251Z,102698.63
2022-12-01T19:05:59.685Z,102701.38
2022-12-01T19:08:26.096Z,102703.97
2022-12-01T19:11:03.415Z,102699.53
2022-12-01T19:13:31.213Z,102703.22
2022-12-01T19:15:57.754Z,102703.34
2022-12-01T19:18:24.818Z,102699.16
2022-12-01T19:20:51.252Z,102701.81
2022-12-01T19:23:17.633Z,102711.44
2022-12-01T19:25:43.934Z,102701.00
2022-12-01T19:28:10.298Z,102700.91
2022-12-01T19:30:36.696Z,102703.75
2022-12-01T19:33:03.085Z,102705.44
2022-12-01T19:35:29.490Z,102701.13
2022-12-01T19:37:55.842Z,102705.13
2022-12-01T19:40:22.208Z,102702.06
2022-12-01T19:42:48.570Z,102700.22
2022-12-01T19:45:14.985Z,102703.66
2022-12-01T19:47:41.339Z,102700.09
2022-12-01T19:50:08.414Z,102706.06
2022-12-01T19:52:36.485Z,102707.81
2022-12-01T19:55:03.227Z,102703.34
2022-12-01T19:57:29.573Z,102712.13
2022-12-01T19:59:55.928Z,102707.22
2022-12-01T20:02:28.947Z,102709.06
2022-12-01T20:04:56.524Z,102702.06
2022-12-01T20:07:23.147Z,102702.97
2022-12-01T20:09:50.231Z,102701.31
2022-12-01T20:12:16.812Z,102707.75
2022-12-01T20:14:43.223Z,102709.50
2022-12-01T20:17:15.581Z,102707.06
2022-12-01T20:19:42.345Z,102701.69
2022-12-01T20:22:08.744Z,102709.59
2022-12-01T20:24:35.914Z,102706.22
2022-12-01T20:27:02.621Z,102695.25
2022-12-01T20:29:29.741Z,102705.38
2022-12-01T20:31:58.044Z,102707.16
2022-12-01T20:34:27.533Z,102701.22
2022-12-01T20:36:54.981Z,102709.81
2022-12-01T20:39:21.634Z,102704.69
2022-12-01T20:41:48.404Z,102698.69
2022-12-01T20:44:16.622Z,102700.41
2022-12-01T20:46:47.636Z,102708.28
2022-12-01T20:49:16.673Z,102701.22
2022-12-01T20:51:43.627Z,102698.00
2022-12-01T20:54:29.864Z,102691.78
2022-12-01T20:56:57.405Z,102695.56
2022-12-01T20:59:24.018Z,102697.31
2022-12-01T21:01:50.401Z,102690.34
2022-12-01T21:04:17.596Z,102695.47
2022-12-01T21:06:44.021Z,102688.50
2022-12-01T21:09:11.492Z,102691.09
2022-12-01T21:12:04.785Z,102684.75
2022-12-01T21:14:39.020Z,102685.50
2022-12-01T21:17:18.640Z,102682.81
2022-12-01T21:20:01.356Z,102682.81
2022-12-01T21:22:27.777Z,102677.06
2022-12-01T21:25:03.506Z,102672.53
2022-12-01T21:27:29.869Z,102671.78
2022-12-01T21:29:56.855Z,102674.13
2022-12-01T21:32:31.207Z,102673.22
2022-12-01T21:35:13.982Z,102669.09
2022-12-01T21:37:40.348Z,102665.94
2022-12-01T21:40:20.332Z,102661.53
2022-12-01T21:42:47.529Z,102652.88
2022-12-01T21:45:31.874Z,102646.59
2022-12-01T21:48:05.760Z,102645.06
2022-12-01T21:50:32.758Z,102642.69
2022-12-01T21:52:59.168Z,102653.06
2022-12-01T21:55:26.005Z,102649.59
2022-12-01T21:57:53.691Z,102647.91
2022-12-01T22:00:26.611Z,102649.59
2022-12-01T22:03:12.071Z,102647.75
2022-12-01T22:05:41.464Z,102655.56
2022-12-01T22:08:24.482Z,102652.25
2022-12-01T22:11:04.593Z,102654.78
2022-12-01T22:13:41.890Z,102656.50
2022-12-01T22:16:14.595Z,102656.50
2022-12-01T22:18:44.734Z,102652.19
2022-12-01T22:21:29.861Z,102646.28
2022-12-01T22:24:11.290Z,102648.81
2022-12-01T22:26:41.179Z,102648.06
2022-12-01T22:29:22.608Z,102656.56
2022-12-01T22:31:48.942Z,102649.06
2022-12-01T22:34:16.570Z,102649.75
2022-12-01T22:36:42.872Z,102646.59
2022-12-01T22:39:46.842Z,102649.75
2022-12-01T22:42:20.861Z,102644.84
2022-12-01T22:44:47.553Z,102646.06
2022-12-01T22:47:14.474Z,102651.81
2022-12-01T22:49:42.332Z,102653.56
2022-12-01T22:52:22.349Z,102654.25
2022-12-01T22:54:50.270Z,102657.69
2022-12-01T22:57:28.321Z,102657.94
2022-12-01T22:59:55.326Z,102653.94
2022-12-01T23:02:29.706Z,102651.31
2022-12-01T23:05:01.536Z,102652.47
2022-12-01T23:07:33.864Z,102655.44
2022-12-01T23:10:12.069Z,102651.84
2022-12-01T23:12:38.681Z,102647.09
2022-12-01T23:15:32.152Z,102654.59
2022-12-01T23:18:17.986Z,102647.91
2022-12-01T23:20:46.962Z,102646.31
2022-12-01T23:23:30.367Z,102654.19
2022-12-01T23:25:57.234Z,102652.66
2022-12-01T23:28:24.535Z,102645.06
2022-12-01T23:30:58.081Z,102645.78
2022-12-01T23:33:27.942Z,102639.09
2022-12-01T23:35:59.283Z,102638.22
2022-12-01T23:38:37.158Z,102632.09
2022-12-01T23:41:16.371Z,102639.22
2022-12-01T23:43:45.010Z,102645.25
2022-12-01T23:46:20.550Z,102639.28
2022-12-01T23:48:51.168Z,102629.78
2022-12-01T23:51:28.365Z,102629.63
2022-12-01T23:53:56.415Z,102629.94
2022-12-01T23:56:25.019Z,102620.50
2022-12-01T23:58:52.726Z,102618.91
